Terminal Aerodrome Forecast
Issued by NWS

Home | Current Version | Previous Version | Text Only | Print | Product List | Glossary On
Versions: 1 2 3 4 5 6 7 8 9 10 11 12 13 14 15 16 17 18 19 20 21 22
136
FTUS46 KEKA 262339
TAFUKI
TAF
KUKI 262339Z 2700/2724 15009KT 4SM -RA BR BKN015 OVC025
      TEMPO 2700/2704 27005KT 6SM -RA BR SCT015 OVC025
     FM270400 32005KT P6SM -RA BKN025 OVC050
      TEMPO 2704/2708 SCT015 SCT030 OVC050
     FM271200 34005KT P6SM SCT030 SCT050 BKN100
     FM271700 31008KT P6SM SCT050 SCT100 BKN250=

USA.gov is the U.S. government's official web portal to all federal, state and local government web resources and services.